Time;durP1;ratioP1;P1;durP2;ratioP2;P2;SDS_P1;SDS_P2;PMS_P1;PMS_P2;Temp;Humidity;BMP_temperature;BMP_pressure;BME280_temperature;BME280_humidity;BME280_pressure;Samples;Min_cycle;Max_cycle;Signal;HPM_P1;HPM_P2
2021/08/15 00:01:25;;;;;;;11.13;8.15;;;21.40;99.90;;;;;;5032232;28;20041;-67
2021/08/15 00:03:51;;;;;;;9.85;8.68;;;21.40;99.90;;;;;;5033225;28;20568;-67
2021/08/15 00:06:17;;;;;;;9.23;8.10;;;21.40;99.90;;;;;;5032087;28;20529;-67
2021/08/15 00:08:45;;;;;;;9.32;8.40;;;21.30;99.90;;;;;;5032833;28;20394;-67
2021/08/15 00:11:11;;;;;;;10.10;9.05;;;21.20;99.90;;;;;;5030922;28;20402;-67
2021/08/15 00:13:37;;;;;;;8.90;7.95;;;21.20;99.90;;;;;;5016705;28;20034;-67
2021/08/15 00:16:02;;;;;;;10.70;8.07;;;21.20;99.90;;;;;;5012638;28;20029;-67
2021/08/15 00:18:28;;;;;;;10.43;8.73;;;21.20;99.90;;;;;;5031551;28;20087;-67
2021/08/15 00:20:54;;;;;;;11.32;8.85;;;21.10;99.90;;;;;;5026483;28;20026;-67
2021/08/15 00:23:19;;;;;;;9.30;8.40;;;21.10;99.90;;;;;;5027964;28;20048;-67
2021/08/15 00:25:45;;;;;;;12.23;8.57;;;21.10;99.90;;;;;;5030801;28;20022;-67
2021/08/15 00:28:11;;;;;;;9.57;8.57;;;21.00;99.90;;;;;;5031351;28;20059;-66
2021/08/15 00:30:36;;;;;;;11.98;9.88;;;21.00;99.90;;;;;;5031807;28;20037;-69
2021/08/15 00:33:02;;;;;;;11.05;9.13;;;20.90;99.90;;;;;;5031211;28;20087;-68
2021/08/15 00:35:28;;;;;;;9.88;8.63;;;20.90;99.90;;;;;;5031775;28;20029;-68
2021/08/15 00:37:53;;;;;;;12.07;8.48;;;20.90;99.90;;;;;;5031622;28;20471;-68
2021/08/15 00:40:19;;;;;;;12.02;8.50;;;20.80;99.90;;;;;;5024690;28;20074;-68
2021/08/15 00:42:44;;;;;;;9.35;8.45;;;20.80;99.90;;;;;;5012653;28;20037;-68
2021/08/15 00:45:11;;;;;;;9.48;8.48;;;20.80;99.90;;;;;;5011867;28;20057;-68
2021/08/15 00:47:36;;;;;;;10.80;8.80;;;20.80;99.90;;;;;;5016877;28;20036;-68
2021/08/15 00:50:04;;;;;;;12.63;8.88;;;20.80;99.90;;;;;;5031435;28;20033;-68
2021/08/15 00:52:30;;;;;;;14.98;9.52;;;20.80;99.90;;;;;;5029133;28;20068;-68
2021/08/15 00:54:57;;;;;;;13.45;9.38;;;20.80;99.90;;;;;;5018776;28;20410;-69
2021/08/15 00:57:30;;;;;;;11.68;8.80;;;20.80;99.90;;;;;;5030400;28;20625;-68
2021/08/15 01:00:05;;;;;;;11.32;9.20;;;20.80;99.90;;;;;;5017186;28;20364;-68
2021/08/15 01:02:33;;;;;;;13.90;9.80;;;20.80;99.90;;;;;;5030316;28;20506;-68
2021/08/15 01:05:00;;;;;;;12.38;9.02;;;20.80;99.90;;;;;;5029828;28;20460;-68
2021/08/15 01:07:27;;;;;;;13.68;8.80;;;20.70;99.90;;;;;;5028943;28;20079;-68
2021/08/15 01:09:52;;;;;;;11.18;8.52;;;20.70;99.90;;;;;;5024513;28;20032;-68
2021/08/15 01:12:18;;;;;;;9.55;8.57;;;20.60;99.90;;;;;;5011124;28;20033;-69
2021/08/15 01:14:44;;;;;;;9.38;8.43;;;20.60;99.90;;;;;;5030573;28;20053;-68
2021/08/15 01:17:10;;;;;;;11.35;9.95;;;20.50;99.90;;;;;;5024974;28;20123;-68
2021/08/15 01:19:36;;;;;;;12.38;9.98;;;20.50;99.90;;;;;;5011871;28;20038;-67
2021/08/15 01:22:02;;;;;;;10.65;9.48;;;20.50;99.90;;;;;;5025637;28;20026;-67
2021/08/15 01:24:28;;;;;;;10.55;9.43;;;20.40;99.90;;;;;;5025671;28;20087;-67
2021/08/15 01:26:54;;;;;;;12.05;9.30;;;20.40;99.90;;;;;;5030800;28;20463;-67
2021/08/15 01:29:22;;;;;;;12.70;10.43;;;20.40;99.90;;;;;;5028877;28;20029;-67
2021/08/15 01:31:49;;;;;;;11.55;9.45;;;20.40;99.90;;;;;;5031010;28;20408;-67
2021/08/15 01:34:14;;;;;;;9.80;8.80;;;20.30;99.90;;;;;;5030298;28;20025;-67
2021/08/15 01:36:40;;;;;;;11.38;9.32;;;20.30;99.90;;;;;;5021911;28;20478;-67
2021/08/15 01:39:06;;;;;;;10.85;9.60;;;20.20;99.90;;;;;;5028566;28;20033;-66
2021/08/15 01:41:31;;;;;;;12.05;9.52;;;20.20;99.90;;;;;;5023327;28;20045;-67
2021/08/15 01:43:59;;;;;;;11.05;9.07;;;20.10;99.90;;;;;;5020762;28;20037;-68
2021/08/15 01:46:27;;;;;;;10.75;9.68;;;20.10;99.90;;;;;;5030114;28;20037;-67
2021/08/15 01:48:53;;;;;;;10.23;9.23;;;20.10;99.90;;;;;;5014507;28;20038;-67
2021/08/15 01:51:20;;;;;;;11.07;9.45;;;20.10;99.90;;;;;;5020465;28;20418;-67
2021/08/15 01:53:47;;;;;;;10.40;9.02;;;20.00;99.90;;;;;;5030334;28;20104;-68
2021/08/15 01:56:13;;;;;;;11.23;9.98;;;20.00;99.90;;;;;;5029971;28;20443;-67
2021/08/15 01:58:38;;;;;;;10.70;9.60;;;19.90;99.90;;;;;;5030275;28;20124;-68
2021/08/15 02:01:05;;;;;;;10.65;9.55;;;19.90;99.90;;;;;;5030335;28;20070;-67
2021/08/15 02:03:31;;;;;;;10.50;9.40;;;19.90;99.90;;;;;;5011670;28;20033;-67
2021/08/15 02:05:56;;;;;;;11.75;9.68;;;19.80;99.90;;;;;;5019306;28;20037;-67
2021/08/15 02:08:23;;;;;;;11.07;9.98;;;19.80;99.90;;;;;;5010517;28;20164;-68
2021/08/15 02:10:49;;;;;;;12.23;9.18;;;19.80;99.90;;;;;;5028151;28;20025;-67
2021/08/15 02:13:15;;;;;;;11.32;9.98;;;19.80;99.90;;;;;;5016097;28;20474;-67
2021/08/15 02:15:41;;;;;;;11.80;10.00;;;19.80;99.90;;;;;;5015133;28;20083;-68
2021/08/15 02:18:07;;;;;;;11.23;10.13;;;19.80;99.90;;;;;;5026089;28;20060;-67
2021/08/15 02:20:35;;;;;;;11.48;9.93;;;19.70;99.90;;;;;;5026040;28;20033;-67
2021/08/15 02:23:01;;;;;;;12.45;10.38;;;19.70;99.90;;;;;;5033453;28;20125;-69
2021/08/15 02:25:27;;;;;;;12.55;10.25;;;19.70;99.90;;;;;;5033413;28;20033;-67
2021/08/15 02:27:54;;;;;;;10.57;9.48;;;19.70;99.90;;;;;;5033770;28;20080;-68
2021/08/15 02:30:22;;;;;;;14.15;10.75;;;19.70;99.90;;;;;;5030011;28;20041;-68
2021/08/15 02:32:48;;;;;;;11.50;10.10;;;19.60;99.90;;;;;;5014879;28;20017;-68
2021/08/15 02:35:15;;;;;;;11.10;10.00;;;19.60;99.90;;;;;;5022093;28;20383;-68
2021/08/15 02:37:42;;;;;;;11.60;10.43;;;19.60;99.90;;;;;;5014691;28;20568;-69
2021/08/15 02:40:10;;;;;;;12.23;9.82;;;19.50;99.90;;;;;;5013254;28;20046;-68
2021/08/15 02:42:38;;;;;;;13.45;10.60;;;19.50;99.90;;;;;;5019343;28;20033;-68
2021/08/15 02:45:05;;;;;;;10.77;9.68;;;19.50;99.90;;;;;;5033329;28;20446;-68
2021/08/15 02:47:31;;;;;;;12.35;11.02;;;19.50;99.90;;;;;;5032660;28;20487;-68
2021/08/15 02:49:57;;;;;;;17.33;11.80;;;19.50;99.90;;;;;;5019654;28;20029;-68
2021/08/15 02:52:22;;;;;;;15.23;11.52;;;19.50;99.90;;;;;;5030923;28;20026;-68
2021/08/15 02:54:48;;;;;;;11.82;10.63;;;19.50;99.90;;;;;;5032202;28;20087;-67
2021/08/15 02:57:14;;;;;;;14.00;11.23;;;19.50;99.90;;;;;;5025687;28;20033;-68
2021/08/15 02:59:40;;;;;;;12.63;10.57;;;19.50;99.90;;;;;;5014166;28;20056;-67
2021/08/15 03:02:10;;;;;;;12.55;10.70;;;19.50;99.90;;;;;;5027831;28;20419;-67
2021/08/15 03:04:36;;;;;;;12.02;10.57;;;19.50;99.90;;;;;;5025310;28;20105;-67
2021/08/15 03:07:02;;;;;;;14.32;11.15;;;19.50;99.90;;;;;;5033627;28;20075;-67
2021/08/15 03:09:28;;;;;;;18.10;12.02;;;19.40;99.90;;;;;;5026307;28;20596;-67
2021/08/15 03:11:54;;;;;;;12.05;10.70;;;19.40;99.90;;;;;;5020321;28;20026;-67
2021/08/15 03:14:19;;;;;;;15.23;12.52;;;19.40;99.90;;;;;;5014970;28;20371;-68
2021/08/15 03:16:45;;;;;;;18.60;12.10;;;19.40;99.90;;;;;;5014394;28;20029;-68
2021/08/15 03:19:11;;;;;;;13.82;11.82;;;19.40;99.90;;;;;;5025464;28;20037;-68
2021/08/15 03:21:36;;;;;;;13.43;10.15;;;19.40;99.90;;;;;;5025264;28;20458;-68
2021/08/15 03:24:03;;;;;;;15.32;11.00;;;19.40;99.90;;;;;;5033269;28;20449;-68
2021/08/15 03:26:29;;;;;;;13.95;11.38;;;19.40;99.90;;;;;;5032035;28;20044;-68
2021/08/15 03:28:54;;;;;;;13.65;9.52;;;19.40;99.90;;;;;;5024814;28;20025;-68
2021/08/15 03:31:20;;;;;;;11.98;10.68;;;19.30;99.90;;;;;;5023164;28;20054;-68
2021/08/15 03:33:46;;;;;;;11.88;10.68;;;19.30;99.90;;;;;;5023674;28;20034;-68
2021/08/15 03:36:11;;;;;;;13.75;10.77;;;19.30;99.90;;;;;;5024687;28;20060;-69
2021/08/15 03:38:37;;;;;;;13.00;10.50;;;19.20;99.90;;;;;;5023767;28;20038;-69
2021/08/15 03:41:03;;;;;;;15.10;12.20;;;19.20;99.90;;;;;;5026215;28;20394;-69
2021/08/15 03:43:29;;;;;;;16.77;12.23;;;19.20;99.90;;;;;;5024119;28;20025;-68
2021/08/15 03:45:55;;;;;;;14.45;12.15;;;19.10;99.90;;;;;;5024123;28;20537;-69
2021/08/15 03:48:20;;;;;;;13.15;11.27;;;19.10;99.90;;;;;;5023589;28;20052;-69
2021/08/15 03:50:46;;;;;;;12.35;10.70;;;19.10;99.90;;;;;;5024238;28;20046;-68
2021/08/15 03:53:12;;;;;;;12.18;10.52;;;19.10;99.90;;;;;;5024327;28;20033;-69
2021/08/15 03:55:37;;;;;;;12.02;10.85;;;19.10;99.90;;;;;;5023272;28;20029;-68
2021/08/15 03:58:05;;;;;;;12.23;11.00;;;19.00;99.90;;;;;;5023624;28;20038;-68
2021/08/15 04:00:32;;;;;;;12.52;11.23;;;19.00;99.90;;;;;;5017687;28;20041;-69
2021/08/15 04:02:57;;;;;;;12.65;11.35;;;18.90;99.90;;;;;;5015586;28;20456;-69
2021/08/15 04:05:23;;;;;;;14.45;11.95;;;18.90;99.90;;;;;;5032005;28;20044;-68
2021/08/15 04:07:49;;;;;;;12.20;10.95;;;18.90;99.90;;;;;;5032607;28;20033;-68
2021/08/15 04:10:15;;;;;;;13.30;11.27;;;18.90;99.90;;;;;;5031127;28;20033;-69
2021/08/15 04:12:40;;;;;;;14.77;12.07;;;18.80;99.90;;;;;;5032540;28;20088;-68
2021/08/15 04:15:07;;;;;;;12.85;11.55;;;18.90;99.90;;;;;;5032285;28;20360;-68
2021/08/15 04:17:32;;;;;;;16.52;11.45;;;18.90;99.90;;;;;;5030915;28;20033;-66
2021/08/15 04:19:58;;;;;;;12.45;11.15;;;18.90;99.90;;;;;;5012836;28;20471;-68
2021/08/15 04:22:24;;;;;;;12.70;11.40;;;18.80;99.90;;;;;;5012488;28;20034;-68
2021/08/15 04:24:49;;;;;;;13.75;11.45;;;18.90;99.90;;;;;;5030516;28;20041;-68
2021/08/15 04:27:15;;;;;;;11.90;10.55;;;18.90;99.90;;;;;;5026648;28;20026;-68
2021/08/15 04:29:40;;;;;;;13.43;11.20;;;18.90;99.90;;;;;;5020337;28;20057;-68
2021/08/15 04:32:07;;;;;;;13.98;12.00;;;18.90;99.90;;;;;;5031373;28;20029;-68
2021/08/15 04:34:33;;;;;;;15.68;11.80;;;18.90;99.90;;;;;;5031301;28;20034;-68
2021/08/15 04:36:59;;;;;;;11.48;10.38;;;18.90;99.90;;;;;;5014702;28;20061;-68
2021/08/15 04:39:25;;;;;;;15.68;11.27;;;18.90;99.90;;;;;;5011665;28;20049;-68
2021/08/15 04:41:51;;;;;;;14.20;11.88;;;18.90;99.90;;;;;;5012459;28;20041;-68
2021/08/15 04:44:16;;;;;;;15.27;12.18;;;19.00;99.90;;;;;;5011619;28;20033;-69
2021/08/15 04:46:42;;;;;;;15.50;12.63;;;19.00;99.90;;;;;;5012382;28;20026;-69
2021/08/15 04:49:07;;;;;;;16.48;11.50;;;19.10;99.90;;;;;;5011786;28;20034;-68
2021/08/15 04:51:33;;;;;;;13.05;11.65;;;19.10;99.90;;;;;;5012280;28;20036;-68
2021/08/15 04:53:59;;;;;;;14.10;11.57;;;19.20;99.90;;;;;;5012428;28;20022;-69
2021/08/15 04:56:24;;;;;;;14.43;11.65;;;19.20;99.90;;;;;;5011230;28;20463;-68
2021/08/15 04:58:50;;;;;;;13.90;11.98;;;19.20;99.90;;;;;;5012309;28;20033;-67
2021/08/15 05:01:15;;;;;;;13.18;11.35;;;19.30;99.90;;;;;;5011423;28;20037;-67
2021/08/15 05:03:41;;;;;;;14.35;11.38;;;19.30;99.90;;;;;;5020440;28;20467;-67
2021/08/15 05:06:07;;;;;;;11.40;10.15;;;19.30;99.90;;;;;;5012227;28;20033;-67
2021/08/15 05:08:32;;;;;;;12.63;11.32;;;19.40;99.90;;;;;;5011302;28;20034;-67
2021/08/15 05:10:58;;;;;;;14.38;11.35;;;19.40;99.90;;;;;;5030217;28;20030;-67
2021/08/15 05:13:28;;;;;;;12.73;11.40;;;19.50;99.90;;;;;;5014968;28;20152;-67
2021/08/15 05:15:54;;;;;;;16.23;11.45;;;19.60;99.90;;;;;;5020485;28;20030;-67
2021/08/15 05:18:19;;;;;;;12.98;11.43;;;19.70;99.90;;;;;;5012025;28;20037;-67
2021/08/15 05:20:45;;;;;;;12.98;11.55;;;19.70;99.90;;;;;;5011946;28;20041;-67
2021/08/15 05:23:12;;;;;;;14.07;10.88;;;19.80;99.90;;;;;;5011593;28;20033;-68
2021/08/15 05:25:37;;;;;;;13.40;11.05;;;19.90;99.90;;;;;;5011894;28;20045;-67
2021/08/15 05:28:04;;;;;;;11.48;10.27;;;20.00;99.90;;;;;;5011795;28;20574;-67
2021/08/15 05:30:30;;;;;;;12.88;9.77;;;20.10;99.90;;;;;;5015458;28;20609;-67
2021/08/15 05:32:56;;;;;;;13.65;11.07;;;20.10;99.90;;;;;;5015088;28;20108;-67
2021/08/15 05:35:22;;;;;;;14.90;11.18;;;20.20;99.90;;;;;;5010876;28;20069;-67
2021/08/15 05:37:48;;;;;;;12.98;11.07;;;20.30;99.90;;;;;;5011976;28;20077;-67
2021/08/15 05:40:14;;;;;;;15.05;11.77;;;20.40;99.90;;;;;;5010909;28;20046;-66
2021/08/15 05:42:39;;;;;;;15.57;13.40;;;20.50;99.90;;;;;;5011680;28;20057;-67
2021/08/15 05:45:06;;;;;;;17.88;13.57;;;20.60;99.90;;;;;;5019035;28;20423;-67
2021/08/15 05:47:32;;;;;;;15.13;13.52;;;20.70;99.90;;;;;;5011809;28;20029;-67
2021/08/15 05:49:57;;;;;;;16.83;13.35;;;20.70;99.90;;;;;;5015051;28;20030;-67
2021/08/15 05:52:24;;;;;;;14.30;12.32;;;20.80;99.90;;;;;;5022520;28;20108;-67
2021/08/15 05:54:50;;;;;;;13.32;11.63;;;20.90;99.90;;;;;;5024082;28;20018;-69
2021/08/15 05:57:16;;;;;;;13.15;11.23;;;20.90;99.90;;;;;;5015580;28;20084;-84
2021/08/15 05:59:42;;;;;;;16.10;12.55;;;21.00;99.90;;;;;;5016488;28;20038;-83
2021/08/15 06:02:08;;;;;;;17.75;13.95;;;21.10;99.90;;;;;;5015404;28;20022;-79
2021/08/15 06:04:33;;;;;;;15.15;12.88;;;21.20;99.90;;;;;;5031249;28;20475;-81
2021/08/15 06:06:59;;;;;;;16.67;11.77;;;21.20;99.90;;;;;;5034707;28;20017;-83
2021/08/15 06:09:25;;;;;;;14.98;13.23;;;21.20;99.90;;;;;;5028004;28;20060;-79
2021/08/15 06:11:51;;;;;;;14.93;13.20;;;21.30;99.90;;;;;;5014240;28;20419;-87
2021/08/15 06:14:17;;;;;;;15.38;12.45;;;21.40;99.90;;;;;;5018876;28;20033;-83
2021/08/15 06:16:42;;;;;;;15.25;12.35;;;21.50;99.90;;;;;;5034646;28;20045;-83
2021/08/15 06:19:08;;;;;;;15.65;12.60;;;21.60;99.90;;;;;;5024179;28;20034;-84
2021/08/15 06:21:34;;;;;;;13.45;10.48;;;21.70;99.90;;;;;;5023488;28;20022;-84
2021/08/15 06:23:59;;;;;;;15.57;11.52;;;21.70;99.90;;;;;;5031986;28;20049;-82
2021/08/15 06:26:25;;;;;;;17.38;11.80;;;21.80;99.90;;;;;;5034189;28;20471;-84
2021/08/15 06:28:51;;;;;;;15.52;12.10;;;21.90;99.90;;;;;;5029546;28;20096;-84
2021/08/15 06:31:18;;;;;;;13.07;11.68;;;22.00;99.90;;;;;;5015454;28;20096;-82
2021/08/15 06:33:43;;;;;;;16.17;13.05;;;22.10;99.90;;;;;;5015856;28;20383;-84
2021/08/15 06:36:09;;;;;;;18.55;13.90;;;22.20;99.90;;;;;;5015048;28;20034;-81
2021/08/15 06:38:35;;;;;;;17.40;14.43;;;22.30;99.90;;;;;;5023634;28;20041;-83
2021/08/15 06:41:00;;;;;;;18.02;14.07;;;22.40;99.90;;;;;;5033400;28;20120;-82
2021/08/15 06:43:26;;;;;;;24.35;13.90;;;22.40;99.90;;;;;;5031949;28;20459;-81
2021/08/15 06:45:52;;;;;;;23.00;14.88;;;22.50;99.90;;;;;;5014870;28;20034;-81
2021/08/15 06:48:17;;;;;;;15.18;13.25;;;22.50;99.90;;;;;;5017255;28;20037;-81
2021/08/15 06:50:43;;;;;;;17.10;14.48;;;22.50;99.90;;;;;;5034216;28;20463;-90
2021/08/15 06:53:09;;;;;;;18.67;13.93;;;22.60;99.90;;;;;;5032946;28;20025;-86
2021/08/15 06:55:35;;;;;;;14.40;12.20;;;22.60;99.90;;;;;;5033281;28;20573;-82
2021/08/15 06:58:00;;;;;;;19.55;13.45;;;22.70;99.90;;;;;;5024442;28;20380;-83
2021/08/15 07:00:26;;;;;;;19.05;13.60;;;22.80;99.90;;;;;;5013362;28;20026;-84
2021/08/15 07:02:51;;;;;;;16.08;12.88;;;22.90;99.90;;;;;;5014131;28;20030;-83
2021/08/15 07:05:19;;;;;;;18.35;14.77;;;23.00;99.90;;;;;;5013732;28;20443;-83
2021/08/15 07:07:45;;;;;;;20.65;14.05;;;23.10;99.90;;;;;;5014328;28;20030;-84
2021/08/15 07:10:11;;;;;;;16.73;13.13;;;23.20;99.90;;;;;;5023833;28;20034;-81
2021/08/15 07:12:37;;;;;;;17.23;13.88;;;23.20;99.90;;;;;;5022172;28;20036;-84
2021/08/15 07:15:06;;;;;;;15.60;13.07;;;23.30;99.90;;;;;;5024874;28;20105;-80
2021/08/15 07:17:35;;;;;;;17.45;12.63;;;23.40;99.90;;;;;;5028129;28;20882;-81
2021/08/15 07:20:02;;;;;;;13.20;11.13;;;23.50;99.90;;;;;;5020070;28;20072;-85
2021/08/15 07:22:28;;;;;;;22.00;13.90;;;23.50;99.90;;;;;;5013584;28;20121;-78
2021/08/15 07:24:54;;;;;;;15.90;11.57;;;23.70;99.90;;;;;;5014424;28;20117;-84
2021/08/15 07:27:19;;;;;;;16.95;12.63;;;23.80;99.90;;;;;;5015127;28;20423;-84
2021/08/15 07:29:45;;;;;;;15.23;13.02;;;23.90;99.90;;;;;;5021922;28;20538;-84
2021/08/15 07:32:11;;;;;;;15.35;12.73;;;23.90;99.90;;;;;;5026998;28;20025;-82
2021/08/15 07:34:36;;;;;;;15.80;12.75;;;24.00;99.90;;;;;;5025153;28;20021;-79
2021/08/15 07:37:02;;;;;;;12.80;11.43;;;24.20;99.90;;;;;;5024725;28;20029;-83
2021/08/15 07:39:28;;;;;;;16.58;11.77;;;24.20;99.90;;;;;;5022116;28;20128;-80
2021/08/15 07:41:53;;;;;;;12.88;11.15;;;24.30;99.90;;;;;;5025420;28;20030;-81
2021/08/15 07:44:20;;;;;;;14.32;12.07;;;24.30;99.90;;;;;;5020607;28;20052;-79
2021/08/15 07:46:46;;;;;;;16.85;11.85;;;24.40;99.90;;;;;;5020333;28;20099;-82
2021/08/15 07:49:11;;;;;;;12.55;11.13;;;24.50;99.90;;;;;;5019025;28;20468;-80
2021/08/15 07:51:37;;;;;;;17.40;10.77;;;24.60;99.90;;;;;;5025896;28;20029;-81
2021/08/15 07:54:03;;;;;;;11.98;10.70;;;24.70;99.90;;;;;;5024297;28;20026;-83
2021/08/15 07:56:29;;;;;;;15.23;10.02;;;24.80;99.90;;;;;;5020356;28;20407;-81
2021/08/15 07:58:54;;;;;;;12.55;10.82;;;24.90;99.10;;;;;;5023530;28;20117;-82
2021/08/15 08:01:20;;;;;;;14.13;11.38;;;25.00;98.20;;;;;;5024935;28;20044;-81
2021/08/15 08:03:46;;;;;;;15.50;12.20;;;25.10;97.80;;;;;;5025197;28;20035;-79
2021/08/15 08:06:11;;;;;;;14.60;10.75;;;25.20;97.80;;;;;;5023247;28;20030;-74
2021/08/15 08:08:37;;;;;;;14.13;11.52;;;25.20;97.60;;;;;;5024706;28;20037;-67
2021/08/15 08:11:03;;;;;;;13.98;11.40;;;25.30;97.40;;;;;;5022954;28;20029;-67
2021/08/15 08:13:29;;;;;;;16.67;11.25;;;25.30;97.70;;;;;;5025708;28;20079;-67
2021/08/15 08:15:55;;;;;;;19.83;12.73;;;25.40;97.70;;;;;;5021805;28;20475;-67
2021/08/15 08:18:21;;;;;;;16.10;11.82;;;25.50;97.60;;;;;;5023014;28;20040;-67
2021/08/15 08:20:46;;;;;;;15.77;11.60;;;25.60;97.30;;;;;;5025086;28;20030;-66
2021/08/15 08:23:14;;;;;;;16.27;11.88;;;25.60;96.90;;;;;;5023034;28;20040;-67
2021/08/15 08:25:46;;;;;;;13.60;11.90;;;25.70;96.70;;;;;;5029407;28;20029;-70
2021/08/15 08:28:12;;;;;;;15.95;11.90;;;25.70;96.40;;;;;;5015034;28;20026;-67
2021/08/15 08:30:39;;;;;;;14.60;11.68;;;25.80;96.80;;;;;;5012168;28;20487;-67
2021/08/15 08:33:05;;;;;;;14.23;12.80;;;25.80;96.40;;;;;;5013667;28;20506;-67
2021/08/15 08:35:31;;;;;;;16.20;12.30;;;25.90;95.90;;;;;;5012212;28;20064;-67
2021/08/15 08:37:56;;;;;;;15.05;11.45;;;26.00;96.10;;;;;;5013670;28;20479;-68
2021/08/15 08:40:22;;;;;;;16.48;13.05;;;26.10;95.40;;;;;;5011743;28;20046;-66
2021/08/15 08:42:49;;;;;;;13.18;11.57;;;26.10;95.20;;;;;;5012848;28;20072;-67
2021/08/15 08:45:20;;;;;;;17.08;11.55;;;26.20;95.40;;;;;;5012291;28;20120;-67
2021/08/15 08:47:47;;;;;;;14.98;11.15;;;26.30;95.20;;;;;;5012365;28;20026;-66
2021/08/15 08:50:13;;;;;;;17.63;11.88;;;26.40;95.00;;;;;;5030322;28;20044;-69
2021/08/15 08:52:40;;;;;;;14.82;11.43;;;26.40;94.70;;;;;;5022485;28;20025;-70
2021/08/15 08:55:06;;;;;;;15.20;11.80;;;26.40;94.60;;;;;;5031663;28;20406;-72
2021/08/15 08:57:32;;;;;;;15.93;11.20;;;26.60;94.50;;;;;;5030036;28;20075;-67
2021/08/15 08:59:59;;;;;;;12.98;11.05;;;26.60;93.90;;;;;;5018343;28;20092;-67
2021/08/15 09:02:25;;;;;;;12.93;10.77;;;26.70;94.00;;;;;;5011380;28;20468;-68
2021/08/15 09:04:51;;;;;;;13.52;12.02;;;26.70;93.90;;;;;;5012294;28;20446;-66
2021/08/15 09:07:19;;;;;;;14.07;11.35;;;26.80;93.30;;;;;;5016460;28;20037;-66
2021/08/15 09:09:51;;;;;;;12.52;10.90;;;26.80;93.20;;;;;;5021114;28;20430;-63
2021/08/15 09:12:17;;;;;;;20.48;12.68;;;27.00;93.00;;;;;;5012067;28;20037;-72
2021/08/15 09:14:43;;;;;;;18.40;12.85;;;27.20;92.50;;;;;;5011761;28;20022;-69
2021/08/15 09:17:09;;;;;;;13.02;11.57;;;27.20;92.30;;;;;;5012417;28;20109;-68
2021/08/15 09:19:35;;;;;;;14.48;11.07;;;27.10;92.20;;;;;;5027520;28;20033;-67
2021/08/15 09:22:24;;;;;;;11.98;10.65;;;27.30;91.90;;;;;;5034913;28;20029;-72
2021/08/15 09:25:02;;;;;;;15.55;12.15;;;27.50;91.60;;;;;;5011864;28;20533;-71
2021/08/15 09:27:32;;;;;;;13.73;11.00;;;27.70;90.70;;;;;;5012211;28;20105;-68
2021/08/15 09:30:05;;;;;;;15.82;12.30;;;27.80;90.40;;;;;;5028152;28;20033;-67
2021/08/15 09:32:31;;;;;;;14.27;11.00;;;27.80;90.10;;;;;;5030168;28;20152;-69
2021/08/15 09:34:58;;;;;;;11.77;10.57;;;27.90;89.60;;;;;;5029700;28;20494;-69
2021/08/15 09:37:32;;;;;;;14.43;10.70;;;27.90;90.00;;;;;;5011056;28;20109;-68
2021/08/15 09:39:58;;;;;;;11.63;10.40;;;28.10;90.10;;;;;;5011562;28;20049;-67
2021/08/15 09:42:44;;;;;;;15.30;10.75;;;28.40;89.10;;;;;;5014461;28;20383;-67
2021/08/15 09:45:14;;;;;;;12.07;10.23;;;28.50;87.40;;;;;;5030688;28;20053;-66
2021/08/15 09:47:40;;;;;;;11.57;9.93;;;28.60;86.90;;;;;;5030175;28;20033;-68
2021/08/15 09:50:22;;;;;;;14.48;9.82;;;28.60;86.10;;;;;;5021991;28;20493;-67
2021/08/15 09:52:47;;;;;;;13.27;10.57;;;28.70;85.90;;;;;;5029492;28;20026;-67
2021/08/15 09:55:13;;;;;;;12.88;11.05;;;28.60;86.50;;;;;;5013467;28;20478;-68
2021/08/15 09:57:40;;;;;;;15.02;10.80;;;28.70;85.60;;;;;;5022952;28;20129;-68
2021/08/15 10:00:25;;;;;;;11.85;10.55;;;28.90;84.70;;;;;;5031041;28;20064;-68
2021/08/15 10:02:51;;;;;;;12.13;10.50;;;29.10;83.90;;;;;;5026846;28;20041;-66
2021/08/15 10:05:17;;;;;;;11.07;10.02;;;29.30;82.90;;;;;;5015408;28;20112;-66
2021/08/15 10:07:43;;;;;;;12.65;10.20;;;29.40;81.70;;;;;;5011143;28;20032;-72
2021/08/15 10:10:13;;;;;;;12.43;9.85;;;29.50;81.70;;;;;;5023368;28;20423;-72
2021/08/15 10:12:38;;;;;;;;;;;29.80;81.20;;;;;;5012888;28;20030;-72
2021/08/15 10:15:10;;;;;;;11.38;9.43;;;;;;;;;;5010362;28;19917;-72
2021/08/15 10:17:36;;;;;;;13.65;10.02;;;29.90;79.00;;;;;;5026872;28;20060;-73
2021/08/15 10:20:05;;;;;;;16.05;9.25;;;30.00;78.60;;;;;;5016868;28;20026;-72
2021/08/15 10:22:32;;;;;;;10.15;9.05;;;30.00;78.50;;;;;;5010527;28;20034;-73
2021/08/15 10:25:01;;;;;;;10.45;9.25;;;29.90;78.40;;;;;;5013498;28;20033;-74
2021/08/15 10:27:39;;;;;;;10.45;9.07;;;29.90;78.70;;;;;;5029383;28;20549;-66
2021/08/15 10:30:17;;;;;;;10.00;8.63;;;29.90;78.20;;;;;;5028864;28;20116;-66
2021/08/15 10:32:54;;;;;;;10.02;8.98;;;30.00;77.40;;;;;;5023463;28;20040;-66
2021/08/15 10:35:21;;;;;;;12.23;9.73;;;30.20;77.10;;;;;;5014307;28;20430;-66
2021/08/15 10:37:49;;;;;;;10.65;9.45;;;30.30;76.40;;;;;;5033851;28;20047;-66
2021/08/15 10:40:43;;;;;;;13.02;9.70;;;30.40;76.30;;;;;;5024880;28;20108;-66
2021/08/15 10:43:11;;;;;;;10.98;9.10;;;30.40;75.80;;;;;;5014893;28;20117;-66
2021/08/15 10:45:37;;;;;;;17.45;9.52;;;30.50;74.90;;;;;;5013917;28;20744;-66
2021/08/15 10:48:08;;;;;;;13.32;9.45;;;30.50;74.90;;;;;;5028292;28;20466;-67
2021/08/15 10:50:43;;;;;;;9.50;8.15;;;30.50;75.40;;;;;;5032911;28;20382;-67
2021/08/15 10:53:41;;;;;;;14.48;9.02;;;30.60;74.60;;;;;;5027299;28;20394;-67
2021/08/15 10:56:10;;;;;;;11.68;9.00;;;30.80;73.90;;;;;;5001890;28;20107;-66
2021/08/15 10:58:44;;;;;;;14.60;9.02;;;30.80;73.50;;;;;;5023265;28;20041;-67
2021/08/15 11:01:14;;;;;;;13.13;8.68;;;30.90;73.50;;;;;;5024224;28;20029;-67
2021/08/15 11:03:50;;;;;;;13.38;10.07;;;30.90;72.90;;;;;;5023762;28;20034;-67
2021/08/15 11:06:31;;;;;;;12.40;8.57;;;30.60;73.40;;;;;;5020737;28;20028;-65
2021/08/15 11:09:05;;;;;;;15.57;8.52;;;30.30;74.40;;;;;;5021870;28;20037;-67
2021/08/15 11:11:34;;;;;;;13.52;9.02;;;29.90;75.60;;;;;;5022599;28;20041;-66
2021/08/15 11:14:21;;;;;;;9.32;8.38;;;29.70;76.60;;;;;;5027081;28;20031;-68
2021/08/15 11:16:48;;;;;;;12.82;9.30;;;29.50;76.90;;;;;;5025388;28;20021;-67
2021/08/15 11:19:14;;;;;;;11.07;8.80;;;29.40;78.20;;;;;;5024341;28;20038;-67
2021/08/15 11:22:05;;;;;;;11.00;8.80;;;29.50;78.50;;;;;;5024934;28;20160;-67
2021/08/15 11:24:57;;;;;;;12.43;9.43;;;29.80;77.10;;;;;;5023807;28;20036;-71
2021/08/15 11:27:35;;;;;;;12.60;9.02;;;30.30;76.60;;;;;;5022652;28;20073;-72
2021/08/15 11:30:12;;;;;;;13.27;9.50;;;30.70;75.20;;;;;;5022262;28;20116;-71
2021/08/15 11:32:39;;;;;;;11.23;9.18;;;30.70;74.40;;;;;;5025517;28;20030;-71
2021/08/15 11:35:14;;;;;;;12.38;9.10;;;30.60;74.70;;;;;;5025161;28;20383;-71
2021/08/15 11:38:01;;;;;;;13.30;9.23;;;30.30;73.70;;;;;;5024781;28;20528;-68
2021/08/15 11:40:30;;;;;;;13.50;10.85;;;30.10;74.70;;;;;;5024027;28;20049;-67
2021/08/15 11:43:09;;;;;;;10.63;8.20;;;29.90;75.10;;;;;;5024277;28;20042;-68
2021/08/15 11:45:44;;;;;;;16.90;9.48;;;29.60;76.00;;;;;;5019046;28;20034;-66
2021/08/15 11:48:15;;;;;;;11.40;9.20;;;29.50;76.80;;;;;;5025539;28;20475;-71
2021/08/15 11:50:56;;;;;;;11.82;10.05;;;29.30;77.00;;;;;;5024686;28;20650;-68
2021/08/15 11:53:21;;;;;;;17.45;10.07;;;29.10;78.10;;;;;;5025365;28;20112;-69
2021/08/15 11:55:48;;;;;;;14.65;10.02;;;28.90;80.50;;;;;;5020362;28;20167;-69
2021/08/15 11:58:14;;;;;;;12.23;9.60;;;28.70;81.00;;;;;;5023402;28;20057;-69
2021/08/15 12:00:39;;;;;;;15.15;11.07;;;28.50;82.60;;;;;;5024663;28;20438;-68
2021/08/15 12:03:15;;;;;;;11.45;9.80;;;28.30;82.30;;;;;;5025781;28;20041;-68
2021/08/15 12:05:47;;;;;;;13.98;10.45;;;28.10;82.80;;;;;;5020060;28;20029;-69
2021/08/15 12:08:17;;;;;;;12.70;10.32;;;27.90;84.90;;;;;;5024780;28;20045;-68
2021/08/15 12:10:51;;;;;;;11.13;9.88;;;27.70;86.20;;;;;;5023205;28;20633;-68
2021/08/15 12:13:21;;;;;;;10.80;9.25;;;27.60;88.40;;;;;;5023185;28;20045;-69
2021/08/15 12:15:54;;;;;;;17.00;10.73;;;27.50;90.80;;;;;;5024845;28;20030;-68
2021/08/15 12:18:41;;;;;;;13.07;11.68;;;27.40;92.70;;;;;;5038013;28;20037;-69
2021/08/15 12:21:31;;;;;;;16.38;12.10;;;27.20;93.60;;;;;;5023442;28;20037;-69
2021/08/15 12:23:56;;;;;;;17.30;12.10;;;27.10;95.20;;;;;;5022493;28;20041;-68
2021/08/15 12:26:25;;;;;;;14.68;11.60;;;27.10;96.20;;;;;;5022329;28;20160;-69
2021/08/15 12:28:58;;;;;;;14.73;11.60;;;27.10;97.40;;;;;;5023578;28;20095;-68
2021/08/15 12:31:27;;;;;;;13.90;10.73;;;27.20;97.70;;;;;;5022674;28;20096;-69
2021/08/15 12:34:06;;;;;;;16.23;11.15;;;27.30;97.90;;;;;;5021946;28;20091;-69